Time;durP1;ratioP1;P1;durP2;ratioP2;P2;SDS_P1;SDS_P2;PMS_P1;PMS_P2;Temp;Humidity;BMP_temperature;BMP_pressure;BME280_temperature;BME280_humidity;BME280_pressure;Samples;Min_cycle;Max_cycle;Signal;HPM_P1;HPM_P2
2021/10/15 00:03:46;;;;;;;13.80;12.40;;;;;;;7.74;80.50;99590.58;477692;1190;142074;-62
2021/10/15 00:13:53;;;;;;;16.30;13.70;;;;;;;7.86;80.35;99585.92;465614;1190;141537;-62
2021/10/15 00:23:59;;;;;;;17.20;13.30;;;;;;;7.93;80.36;99578.42;460811;1190;141844;-60
2021/10/15 00:34:05;;;;;;;16.20;13.70;;;;;;;7.95;80.29;99571.33;465871;1190;142233;-62
2021/10/15 00:44:13;;;;;;;15.60;13.50;;;;;;;7.94;80.38;99568.05;477719;1190;141681;-62
2021/10/15 00:54:19;;;;;;;13.90;12.10;;;;;;;7.91;80.32;99562.46;477730;1190;142602;-62
2021/10/15 01:04:25;;;;;;;15.30;12.70;;;;;;;7.90;80.53;99547.00;477698;1190;142608;-62
2021/10/15 01:14:32;;;;;;;13.30;11.60;;;;;;;7.90;80.61;99547.36;476838;1190;142587;-62
2021/10/15 01:24:39;;;;;;;12.60;11.20;;;;;;;7.89;80.77;99545.32;477774;1190;143251;-62
2021/10/15 01:34:46;;;;;;;12.60;11.30;;;;;;;7.90;80.86;99531.33;477721;1190;142611;-62
2021/10/15 01:44:52;;;;;;;11.20;9.90;;;;;;;7.93;81.22;99521.43;476896;1190;142204;-62
2021/10/15 01:54:59;;;;;;;10.90;9.80;;;;;;;7.94;81.34;99518.05;468534;1190;143423;-62
2021/10/15 02:05:07;;;;;;;10.30;9.30;;;;;;;7.94;81.48;99516.49;471472;1190;141890;-60
2021/10/15 02:15:14;;;;;;;10.50;9.00;;;;;;;7.89;81.64;99511.54;476818;1190;144445;-63
2021/10/15 02:25:21;;;;;;;9.40;8.50;;;;;;;7.90;81.92;99510.60;463344;1190;140925;-61
2021/10/15 02:35:27;;;;;;;10.40;9.40;;;;;;;7.92;81.94;99506.11;476947;1190;141631;-62
2021/10/15 02:45:37;;;;;;;10.60;9.40;;;;;;;7.96;82.09;99500.48;470538;1190;142575;-62
2021/10/15 02:55:43;;;;;;;12.40;10.70;;;;;;;8.02;82.18;99498.43;462375;1178;141616;-61
2021/10/15 03:05:49;;;;;;;11.90;10.70;;;;;;;8.03;82.23;99499.42;461237;1190;142258;-62
2021/10/15 03:15:56;;;;;;;12.90;11.60;;;;;;;8.03;82.47;99496.98;471550;1190;142627;-62
2021/10/15 03:26:02;;;;;;;12.70;11.40;;;;;;;8.05;82.44;99489.05;477802;1190;143067;-61
2021/10/15 03:36:08;;;;;;;12.70;10.70;;;;;;;8.09;82.39;99480.98;476956;1190;195171;-61
2021/10/15 03:46:14;;;;;;;14.40;11.50;;;;;;;8.15;82.45;99480.50;477752;1190;142068;-62
2021/10/15 03:56:21;;;;;;;11.40;10.20;;;;;;;8.17;82.28;99482.63;471025;1190;142086;-62
2021/10/15 04:06:27;;;;;;;12.50;10.90;;;;;;;8.19;82.41;99486.35;477729;1190;141345;-62
2021/10/15 04:16:33;;;;;;;11.30;10.10;;;;;;;8.23;82.33;99483.50;466636;1190;142373;-61
2021/10/15 04:26:41;;;;;;;10.50;9.30;;;;;;;8.23;82.38;99476.19;463350;1190;141581;-61
2021/10/15 04:36:47;;;;;;;10.50;9.40;;;;;;;8.20;82.22;99469.52;463504;1190;142167;-63
2021/10/15 04:46:53;;;;;;;10.50;9.40;;;;;;;8.15;82.46;99460.08;475307;1190;199539;-62
2021/10/15 04:56:59;;;;;;;10.40;9.40;;;;;;;8.08;82.30;99445.64;476914;1190;142025;-62
2021/10/15 05:07:05;;;;;;;10.70;9.20;;;;;;;8.09;82.41;99441.76;475521;1190;141426;-62
2021/10/15 05:17:11;;;;;;;12.70;9.50;;;;;;;8.15;82.52;99451.70;477699;1190;141688;-62
2021/10/15 05:27:17;;;;;;;10.40;9.20;;;;;;;8.24;82.40;99456.44;476350;1190;142076;-62
2021/10/15 05:37:24;;;;;;;10.00;8.40;;;;;;;8.30;82.42;99448.26;475753;1190;141587;-62
2021/10/15 05:47:30;;;;;;;10.00;8.20;;;;;;;8.36;82.17;99445.14;470494;1190;142979;-62
2021/10/15 06:18:21;;;;;;;14.30;12.10;;;;;;;8.56;82.03;99437.71;462018;1190;142131;-60
2021/10/15 06:28:27;;;;;;;25.80;21.10;;;;;;;8.70;81.79;99430.44;474689;1190;141694;-62
2021/10/15 06:38:35;;;;;;;17.70;12.20;;;;;;;8.94;81.72;99433.75;476786;1183;142423;-62
2021/10/15 06:48:41;;;;;;;14.10;12.50;;;;;;;9.17;81.27;99436.39;477758;1190;142494;-66
2021/10/15 06:58:47;;;;;;;14.90;13.00;;;;;;;9.38;81.06;99429.36;477669;1191;141730;-69
2021/10/15 07:08:53;;;;;;;13.80;11.00;;;;;;;9.69;80.55;99422.09;461764;1190;142278;-60
2021/10/15 07:19:00;;;;;;;14.90;11.40;;;;;;;10.10;80.05;99423.52;455769;1188;10001936;-71
2021/10/15 07:29:06;;;;;;;12.90;10.50;;;;;;;10.19;79.28;99433.05;461005;1190;143265;-69
2021/10/15 07:39:13;;;;;;;18.10;14.70;;;;;;;10.25;79.03;99438.48;460127;1190;141834;-66
2021/10/15 07:49:19;;;;;;;12.90;11.40;;;;;;;10.34;78.83;99425.49;460413;1190;141766;-64
2021/10/15 07:59:25;;;;;;;12.90;11.60;;;;;;;10.77;78.23;99422.83;465220;1190;143183;-64
2021/10/15 08:09:31;;;;;;;24.90;17.80;;;;;;;11.46;77.52;99413.58;477604;1190;142525;-67
2021/10/15 08:19:38;;;;;;;14.10;11.70;;;;;;;12.05;76.03;99415.58;471448;1190;142926;-66
2021/10/15 08:29:45;;;;;;;15.60;11.30;;;;;;;12.41;75.47;99406.03;459984;1190;142510;-71
2021/10/15 08:39:51;;;;;;;10.50;9.00;;;;;;;16.72;72.01;99397.52;473532;1190;143242;-66
2021/10/15 08:49:57;;;;;;;9.20;8.30;;;;;;;21.29;64.21;99374.82;477817;1190;145080;-66
2021/10/15 09:00:19;;;;;;;9.00;8.00;;;;;;;22.65;59.06;99370.85;463167;1190;140856;-65
2021/10/15 09:10:32;;;;;;;8.90;8.10;;;;;;;21.13;56.39;99359.30;477885;1190;141327;-66
2021/10/15 09:20:39;;;;;;;15.10;11.70;;;;;;;18.74;57.66;99371.14;475928;1190;141418;-65
2021/10/15 09:30:49;;;;;;;12.30;10.40;;;;;;;18.08;57.57;99364.56;461518;1190;143849;-65
2021/10/15 09:40:56;;;;;;;9.90;8.90;;;;;;;17.63;57.89;99352.45;470455;1190;141249;-66
2021/10/15 09:51:16;;;;;;;10.50;9.40;;;;;;;17.15;58.06;99343.11;470236;1190;141059;-67
2021/10/15 10:01:23;;;;;;;13.40;10.30;;;;;;;16.99;58.12;99342.30;477548;1190;142795;-64
2021/10/15 10:11:30;;;;;;;9.60;8.60;;;;;;;17.25;58.09;99338.79;476697;1190;142877;-66
2021/10/15 10:21:53;;;;;;;8.70;7.80;;;;;;;17.37;57.20;99330.51;477495;1190;141387;-69
2021/10/15 10:32:16;;;;;;;7.80;7.10;;;;;;;16.95;56.97;99317.91;454428;1190;10002814;-70
2021/10/15 10:42:28;;;;;;;10.10;7.30;;;;;;;16.50;56.89;99308.84;477782;1190;141979;-70
2021/10/15 10:52:36;;;;;;;8.70;6.50;;;;;;;16.41;56.88;99290.78;472224;1190;141401;-70
2021/10/15 11:02:48;;;;;;;11.30;10.20;;;;;;;16.19;57.17;99285.23;461658;1190;142989;-70
2021/10/15 11:13:01;;;;;;;8.30;7.10;;;;;;;16.00;56.56;99276.45;461972;1190;141388;-70
2021/10/15 11:23:09;;;;;;;7.40;5.40;;;;;;;15.61;56.14;99259.19;461380;1190;140789;-71
2021/10/15 11:33:17;;;;;;;4.90;4.40;;;;;;;15.31;55.55;99242.43;460596;1190;141403;-71
2021/10/15 11:43:26;;;;;;;9.40;4.60;;;;;;;15.13;55.58;99233.04;461363;1190;152965;-70
2021/10/15 11:53:32;;;;;;;;;;;;;;;15.06;54.97;99225.80;460853;1190;140766;-71
2021/10/15 12:03:40;;;;;;;4.70;3.70;;;;;;;15.22;54.87;99217.96;461915;1190;127217;-71
2021/10/15 12:13:47;;;;;;;8.20;4.70;;;;;;;15.46;55.15;99214.84;462590;1190;142057;-71
2021/10/15 12:23:55;;;;;;;6.20;4.80;;;;;;;15.15;54.95;99200.95;460285;1192;141164;-71
2021/10/15 12:34:14;;;;;;;4.60;4.20;;;;;;;14.74;55.70;99208.48;463606;1190;141283;-70
2021/10/15 12:44:27;;;;;;;6.10;5.10;;;;;;;14.61;56.22;99209.73;460995;1190;142324;-69
2021/10/15 12:54:46;;;;;;;7.60;4.90;;;;;;;14.76;56.37;99205.98;463204;1192;140760;-69
2021/10/15 13:04:54;;;;;;;6.10;4.90;;;;;;;14.59;56.57;99199.47;463356;1190;144780;-69
2021/10/15 13:15:00;;;;;;;5.20;4.30;;;;;;;14.76;56.71;99186.58;461460;1190;141820;-68
2021/10/15 13:25:08;;;;;;;5.00;4.30;;;;;;;14.78;56.41;99178.15;462119;1190;141566;-66
2021/10/15 13:35:16;;;;;;;4.40;4.00;;;;;;;14.54;56.34;99169.64;461153;1190;140936;-61
2021/10/15 13:45:29;;;;;;;4.30;3.70;;;;;;;14.25;56.40;99167.85;462007;1190;141499;-60
2021/10/15 13:55:41;;;;;;;5.50;4.40;;;;;;;14.19;56.66;99149.56;462891;1190;141812;-71
2021/10/15 14:05:47;;;;;;;4.90;4.10;;;;;;;13.90;57.11;99143.60;462372;1190;140745;-66
2021/10/15 14:15:53;;;;;;;6.40;4.50;;;;;;;13.70;57.60;99144.16;461517;1190;142740;-69
2021/10/15 14:25:59;;;;;;;5.30;4.90;;;;;;;13.50;58.01;99144.80;461317;1191;143546;-70
2021/10/15 14:36:06;;;;;;;5.90;5.40;;;;;;;13.29;58.54;99148.95;460597;1192;142350;-70
2021/10/15 14:46:12;;;;;;;5.80;5.30;;;;;;;12.95;59.32;99145.16;461691;1190;142280;-61
2021/10/15 14:56:19;;;;;;;6.10;5.50;;;;;;;12.69;60.17;99147.42;461650;1191;183627;-66
2021/10/15 15:06:25;;;;;;;7.60;6.80;;;;;;;12.57;60.74;99156.47;462247;1190;141521;-64
2021/10/15 15:16:30;;;;;;;6.60;6.00;;;;;;;12.50;61.35;99155.07;462528;1190;141238;-70
2021/10/15 15:26:36;;;;;;;6.70;6.00;;;;;;;12.37;61.89;99148.55;463195;1177;142437;-68
2021/10/15 15:36:42;;;;;;;18.00;8.10;;;;;;;12.22;62.35;99148.31;467949;1191;142095;-62
2021/10/15 15:46:56;;;;;;;12.20;10.30;;;;;;;12.09;62.95;99154.54;462196;1190;141430;-62
2021/10/15 15:57:02;;;;;;;12.90;9.20;;;;;;;12.00;63.41;99155.91;476517;1190;142473;-62
2021/10/15 16:07:08;;;;;;;11.50;8.60;;;;;;;11.91;63.90;99164.64;477754;1190;142525;-62
2021/10/15 16:17:13;;;;;;;12.10;9.80;;;;;;;11.82;64.37;99163.78;477670;1190;142126;-61
2021/10/15 16:27:19;;;;;;;9.80;7.90;;;;;;;11.76;64.83;99161.75;477754;1190;141903;-61
2021/10/15 16:48:31;;;;;;;11.20;10.00;;;;;;;11.62;65.55;99172.25;458858;1209;10002035;-65
2021/10/15 16:58:37;;;;;;;13.10;10.90;;;;;;;11.47;65.95;99168.98;462533;1195;10002076;-69
2021/10/15 17:08:43;;;;;;;12.10;10.60;;;;;;;11.43;66.26;99169.33;457183;1196;141402;-63
2021/10/15 17:18:49;;;;;;;13.90;11.20;;;;;;;11.39;66.51;99166.41;470575;1196;145358;-64
2021/10/15 17:28:55;;;;;;;10.70;9.50;;;;;;;11.35;66.72;99157.77;465417;1196;140721;-67
2021/10/15 17:39:01;;;;;;;16.50;13.40;;;;;;;11.35;66.95;99149.21;469028;1196;192864;-67
2021/10/15 17:49:07;;;;;;;11.20;10.00;;;;;;;11.36;66.98;99149.48;467722;1196;143699;-67
2021/10/15 17:59:14;;;;;;;18.50;14.50;;;;;;;11.32;67.22;99147.65;473625;1196;142030;-65
2021/10/15 18:09:21;;;;;;;11.60;9.90;;;;;;;11.27;67.44;99145.39;473371;1196;141981;-65
2021/10/15 18:19:27;;;;;;;14.30;11.00;;;;;;;11.28;67.55;99147.61;466944;1196;141577;-63
2021/10/15 18:29:33;;;;;;;17.10;11.30;;;;;;;11.19;67.89;99158.91;473236;1196;141113;-63
2021/10/15 18:39:39;;;;;;;12.00;9.80;;;;;;;11.07;68.62;99156.15;473518;1196;140377;-63
2021/10/15 18:49:46;;;;;;;11.70;9.10;;;;;;;10.99;69.25;99161.13;474858;1196;141557;-62
2021/10/15 18:59:52;;;;;;;16.80;13.30;;;;;;;10.90;70.13;99166.84;465641;1195;141191;-61
2021/10/15 19:09:58;;;;;;;10.00;8.90;;;;;;;10.69;71.30;99187.17;474771;1195;142155;-65
2021/10/15 19:20:04;;;;;;;6.30;5.20;;;;;;;10.49;72.72;99220.43;467328;1195;140807;-64
2021/10/15 19:30:18;;;;;;;5.10;4.60;;;;;;;10.28;73.46;99220.97;471039;1195;141754;-63
2021/10/15 19:40:24;;;;;;;3.20;3.00;;;;;;;10.16;74.24;99241.23;473185;1195;141198;-64
2021/10/15 19:50:29;;;;;;;1.50;1.10;;;;;;;9.82;74.54;99264.25;463180;1196;141553;-63
2021/10/15 20:00:37;;;;;;;1.20;0.60;;;;;;;9.18;73.27;99291.73;474987;1195;141923;-66
2021/10/15 20:10:43;;;;;;;2.90;0.80;;;;;;;8.73;73.10;99307.62;468215;1196;140892;-64
2021/10/15 20:20:49;;;;;;;3.70;1.20;;;;;;;8.38;73.05;99310.90;463955;1196;142169;-62
2021/10/15 20:30:56;;;;;;;1.30;0.90;;;;;;;8.13;73.23;99318.41;470835;1196;141181;-63
2021/10/15 20:41:02;;;;;;;1.10;0.80;;;;;;;7.97;73.50;99335.77;474837;1196;141047;-63
2021/10/15 20:51:08;;;;;;;3.50;1.20;;;;;;;7.86;73.73;99343.69;473957;1196;141890;-62
2021/10/15 21:01:15;;;;;;;2.20;1.30;;;;;;;7.81;74.13;99359.81;468867;1196;140581;-63
2021/10/15 21:11:22;;;;;;;3.90;1.70;;;;;;;7.69;74.63;99375.84;474041;1196;142133;-64
2021/10/15 21:21:29;;;;;;;3.30;2.10;;;;;;;7.65;75.05;99393.80;470521;1196;143864;-64
2021/10/15 21:31:35;;;;;;;4.50;2.20;;;;;;;7.65;75.72;99399.00;475032;1195;141324;-61
2021/10/15 21:41:41;;;;;;;3.90;2.60;;;;;;;7.56;76.21;99410.30;474115;1195;140696;-61
2021/10/15 21:51:47;;;;;;;4.50;3.40;;;;;;;7.53;76.43;99412.20;474991;1196;142679;-63
2021/10/15 22:01:53;;;;;;;3.90;2.40;;;;;;;7.52;77.08;99415.56;471072;1196;142079;-61
2021/10/15 22:12:01;;;;;;;6.20;3.40;;;;;;;7.67;77.51;99430.82;471403;1196;141495;-61
2021/10/15 22:22:07;;;;;;;5.50;3.10;;;;;;;7.77;77.71;99439.66;476214;1193;141256;-60
2021/10/15 22:32:14;;;;;;;5.00;2.40;;;;;;;7.82;77.69;99437.15;476124;1193;140697;-60
2021/10/15 22:42:21;;;;;;;4.30;2.90;;;;;;;7.85;77.66;99440.27;469283;1193;140528;-58
2021/10/15 22:52:27;;;;;;;4.70;3.40;;;;;;;7.88;77.68;99458.60;462692;1193;148109;-59
2021/10/15 23:02:33;;;;;;;10.60;3.40;;;;;;;7.81;77.38;99465.22;468030;1193;140517;-60
2021/10/15 23:12:40;;;;;;;7.30;4.50;;;;;;;7.77;77.57;99470.69;476269;1193;141863;-61
2021/10/15 23:22:46;;;;;;;5.60;3.60;;;;;;;7.80;77.72;99479.41;466146;1193;144342;-60
2021/10/15 23:32:53;;;;;;;9.90;4.40;;;;;;;7.77;77.74;99485.50;469449;1191;144297;-60
2021/10/15 23:43:00;;;;;;;5.30;4.20;;;;;;;7.77;77.85;99503.11;466760;1191;140546;-60
2021/10/15 23:53:06;;;;;;;17.50;6.20;;;;;;;7.79;77.77;99507.36;460771;1192;140903;-61
